Time;durP1;ratioP1;P1;durP2;ratioP2;P2;SDS_P1;SDS_P2;PMS_P1;PMS_P2;Temp;Humidity;BMP_temperature;BMP_pressure;BME280_temperature;BME280_humidity;BME280_pressure;Samples;Min_cycle;Max_cycle;Signal;HPM_P1;HPM_P2
2021/04/14 00:01:32;;;;;;;;;;;154.10;2252.80;;;;;;5097102;28;20030;-80
2021/04/14 00:03:58;;;;;;;7.47;5.30;;;154.20;2252.80;;;;;;5114357;28;20359;-80
2021/04/14 00:06:23;;;;;;;7.35;4.55;;;154.00;2252.80;;;;;;5096325;28;20020;-81
2021/04/14 00:08:49;;;;;;;;;;;153.90;2252.80;;;;;;5096663;28;20127;-80
2021/04/14 00:11:19;;;;;;;7.72;5.18;;;153.90;2252.80;;;;;;5096005;28;20050;-80
2021/04/14 00:13:46;;;;;;;7.10;4.97;;;153.80;2252.80;;;;;;5096186;28;20016;-79
2021/04/14 00:16:18;;;;;;;7.50;5.03;;;153.70;2252.80;;;;;;5096054;28;20027;-81
2021/04/14 00:18:45;;;;;;;9.02;5.22;;;153.70;2252.80;;;;;;5096922;28;20022;-81
2021/04/14 00:21:11;;;;;;;7.65;4.65;;;153.70;2252.80;;;;;;5096629;28;20073;-79
2021/04/14 00:23:37;;;;;;;;;;;153.60;2252.80;;;;;;5096893;28;20031;-81
2021/04/14 00:26:06;;;;;;;7.38;5.25;;;153.80;2252.80;;;;;;5095654;28;19912;-82
2021/04/14 00:28:32;;;;;;;8.60;5.85;;;153.70;2252.80;;;;;;5091760;28;20012;-81
2021/04/14 00:30:58;;;;;;;6.70;4.95;;;153.70;2252.80;;;;;;5096325;28;20465;-81
2021/04/14 00:33:23;;;;;;;;;;;153.70;2252.80;;;;;;5096653;28;20039;-81
2021/04/14 00:35:50;;;;;;;8.65;4.68;;;153.80;2252.80;;;;;;5093731;28;19914;-81
2021/04/14 00:38:17;;;;;;;9.68;5.85;;;153.60;2252.80;;;;;;5096315;28;20020;-81
2021/04/14 00:40:46;;;;;;;8.25;5.60;;;153.60;2252.80;;;;;;5096164;28;20030;-81
2021/04/14 00:43:19;;;;;;;8.60;6.03;;;153.70;2252.80;;;;;;5093773;28;20118;-82
2021/04/14 00:45:45;;;;;;;10.48;5.32;;;153.70;2252.80;;;;;;5095891;28;20020;-81
2021/04/14 00:48:11;;;;;;;;;;;153.70;2252.80;;;;;;5095989;28;20031;-81
2021/04/14 00:50:38;;;;;;;8.38;5.90;;;153.70;2252.80;;;;;;5095272;28;19916;-81
2021/04/14 00:53:05;;;;;;;8.32;5.85;;;153.70;2252.80;;;;;;5095884;28;20035;-81
2021/04/14 00:55:32;;;;;;;9.93;5.85;;;153.70;2252.80;;;;;;5096071;28;20019;-81
2021/04/14 00:57:58;;;;;;;8.30;5.85;;;154.10;2252.80;;;;;;5094206;28;20131;-81
2021/04/14 01:00:44;;;;;;;7.97;5.13;;;153.70;2252.80;;;;;;5113696;28;20019;-81
2021/04/14 01:03:14;;;;;;;7.10;4.95;;;153.80;2252.80;;;;;;5090275;28;20046;-81
2021/04/14 01:05:40;;;;;;;7.28;4.93;;;153.80;2252.80;;;;;;5114069;28;20022;-81
2021/04/14 01:08:06;;;;;;;;;;;153.80;2252.80;;;;;;5096083;28;20015;-82
2021/04/14 01:10:32;;;;;;;8.63;5.78;;;153.70;2252.80;;;;;;5114043;28;20060;-81
2021/04/14 01:12:58;;;;;;;;;;;153.70;2252.80;;;;;;5095999;28;20020;-82
2021/04/14 01:15:30;;;;;;;7.72;6.00;;;153.70;2252.80;;;;;;5114058;28;19930;-81
2021/04/14 01:17:56;;;;;;;10.30;5.72;;;153.60;2252.80;;;;;;5093524;28;20026;-82
2021/04/14 01:20:21;;;;;;;;;;;153.70;2252.80;;;;;;5096142;28;20602;-82
2021/04/14 01:22:47;;;;;;;8.82;4.93;;;153.70;2252.80;;;;;;5095043;28;20006;-80
2021/04/14 01:25:18;;;;;;;;;;;153.70;2252.80;;;;;;5096033;28;20031;-81
2021/04/14 01:27:43;;;;;;;9.93;5.60;;;153.60;2252.80;;;;;;5095391;28;19984;-82
2021/04/14 01:30:11;;;;;;;;;;;153.60;2252.80;;;;;;5095164;28;20495;-81
2021/04/14 01:32:37;;;;;;;;;;;153.60;2252.80;;;;;;5095912;28;19907;-81
2021/04/14 01:35:03;;;;;;;8.73;6.25;;;153.70;2252.80;;;;;;5095520;28;20009;-82
2021/04/14 01:37:29;;;;;;;8.25;5.60;;;153.70;2252.80;;;;;;5113365;28;20016;-83
2021/04/14 01:39:54;;;;;;;;;;;153.70;2252.80;;;;;;5095854;28;20028;-82
2021/04/14 01:42:20;;;;;;;7.25;5.05;;;153.60;2252.80;;;;;;5094576;28;19926;-82
2021/04/14 01:44:46;;;;;;;;;;;153.60;2252.80;;;;;;5095709;28;20039;-82
2021/04/14 01:47:11;;;;;;;10.13;6.15;;;128.90;2252.80;;;;;;5092690;28;20366;-82
2021/04/14 01:49:37;;;;;;;;;;;153.70;2252.80;;;;;;5113277;28;20119;-80
2021/04/14 01:52:03;;;;;;;6.80;4.72;;;153.70;2252.80;;;;;;5095194;28;20360;-82
2021/04/14 01:54:29;;;;;;;13.90;6.07;;;153.70;2252.80;;;;;;5113448;28;20019;-82
2021/04/14 01:56:54;;;;;;;;;;;153.70;2252.80;;;;;;5095083;28;20532;-82
2021/04/14 01:59:20;;;;;;;9.10;5.40;;;153.60;2252.80;;;;;;5095002;28;19907;-81
2021/04/14 02:01:46;;;;;;;;;;;153.60;2252.80;;;;;;5095246;28;20388;-82
2021/04/14 02:04:12;;;;;;;8.50;5.82;;;153.60;2252.80;;;;;;5094930;28;19926;-80
2021/04/14 02:06:38;;;;;;;10.68;5.85;;;153.70;2252.80;;;;;;5095071;28;20015;-82
2021/04/14 02:09:04;;;;;;;;;;;153.70;2252.80;;;;;;5095385;28;20034;-82
2021/04/14 02:11:30;;;;;;;10.05;5.70;;;153.70;2252.80;;;;;;5094762;28;19918;-82
2021/04/14 02:13:55;;;;;;;;;;;153.80;2252.80;;;;;;5095178;28;20046;-82
2021/04/14 02:16:22;;;;;;;9.73;5.50;;;153.70;2252.80;;;;;;5112959;28;20264;-81
2021/04/14 02:18:52;;;;;;;7.03;5.03;;;153.70;2252.80;;;;;;5094761;28;20523;-82
2021/04/14 02:21:19;;;;;;;8.38;5.68;;;153.60;2252.80;;;;;;5094947;28;20051;-83
2021/04/14 02:23:46;;;;;;;8.88;5.60;;;153.60;2252.80;;;;;;5094059;28;20032;-82
2021/04/14 02:26:18;;;;;;;8.55;5.80;;;153.60;2252.80;;;;;;5094929;28;20026;-82
2021/04/14 02:28:46;;;;;;;9.98;6.03;;;153.60;2252.80;;;;;;5094364;28;20073;-81
2021/04/14 02:31:16;;;;;;;9.27;6.03;;;128.90;2252.80;;;;;;5094793;28;20023;-82
2021/04/14 02:33:42;;;;;;;8.68;5.38;;;128.90;2252.80;;;;;;5094614;28;20031;-82
2021/04/14 02:36:08;;;;;;;;;;;128.90;2252.80;;;;;;5094850;28;20031;-82
2021/04/14 02:38:34;;;;;;;7.78;5.28;;;128.80;2252.80;;;;;;5094667;28;19931;-83
2021/04/14 02:41:03;;;;;;;6.82;4.80;;;128.90;2252.80;;;;;;5094374;28;20055;-80
2021/04/14 02:43:29;;;;;;;7.68;4.88;;;128.90;2252.80;;;;;;5093921;28;20074;-80
2021/04/14 02:45:54;;;;;;;;;;;128.90;2252.80;;;;;;5094468;28;20051;-83
2021/04/14 02:48:20;;;;;;;6.57;4.50;;;128.90;2252.80;;;;;;5094823;28;19903;-81
2021/04/14 02:50:46;;;;;;;;;;;128.80;2252.80;;;;;;5102184;28;20043;-81
2021/04/14 02:53:11;;;;;;;7.07;4.72;;;128.70;2252.80;;;;;;5095240;28;20280;-82
2021/04/14 02:55:37;;;;;;;;;;;128.80;2252.80;;;;;;5095292;28;20024;-81
2021/04/14 02:58:03;;;;;;;7.53;4.85;;;128.70;2252.80;;;;;;5095063;28;19904;-81
2021/04/14 03:00:30;;;;;;;;;;;128.70;2252.80;;;;;;5095232;28;20064;-81
2021/04/14 03:02:56;;;;;;;6.60;4.60;;;128.70;2252.80;;;;;;5092421;28;20388;-82
2021/04/14 03:05:27;;;;;;;7.15;4.30;;;128.80;2252.80;;;;;;5095009;28;20028;-81
2021/04/14 03:07:54;;;;;;;6.10;4.60;;;128.70;2252.80;;;;;;5094746;28;20073;-81
2021/04/14 03:10:19;;;;;;;;;;;128.70;2252.80;;;;;;5095617;28;20056;-81
2021/04/14 03:12:46;;;;;;;6.38;4.15;;;128.80;2252.80;;;;;;5094520;28;20400;-81
2021/04/14 03:15:13;;;;;;;6.85;4.07;;;128.70;2252.80;;;;;;5094740;28;20051;-81
2021/04/14 03:17:40;;;;;;;8.27;4.55;;;128.70;2252.80;;;;;;5095657;28;20567;-80
2021/04/14 03:20:07;;;;;;;5.90;4.20;;;128.80;2252.80;;;;;;5094733;28;20020;-80
2021/04/14 03:22:34;;;;;;;7.03;4.43;;;128.80;2252.80;;;;;;5095003;28;20050;-80
2021/04/14 03:25:00;;;;;;;7.22;4.72;;;128.80;2252.80;;;;;;5094693;28;20038;-81
2021/04/14 03:27:26;;;;;;;;;;;128.80;2252.80;;;;;;5094893;28;20024;-81
2021/04/14 03:29:51;;;;;;;7.05;4.55;;;128.90;2252.80;;;;;;5094337;28;20449;-81
2021/04/14 03:32:17;;;;;;;;;;;128.90;2252.80;;;;;;5095004;28;20385;-81
2021/04/14 03:34:43;;;;;;;6.78;4.40;;;128.90;2252.80;;;;;;5095514;28;19923;-81
2021/04/14 03:37:08;;;;;;;;;;;128.90;2252.80;;;;;;5094827;28;20088;-80
2021/04/14 03:39:34;;;;;;;6.45;4.20;;;128.90;2252.80;;;;;;5094120;28;20375;-81
2021/04/14 03:42:00;;;;;;;;;;;128.80;2252.80;;;;;;5094609;28;20031;-80
2021/04/14 03:44:32;;;;;;;5.22;3.20;;;128.80;2252.80;;;;;;5094674;28;20011;-81
2021/04/14 03:46:57;;;;;;;4.50;3.08;;;128.60;2252.80;;;;;;5094812;28;20028;-81
2021/04/14 03:49:23;;;;;;;5.68;3.90;;;128.60;2252.80;;;;;;5096806;28;20016;-80
2021/04/14 03:51:49;;;;;;;5.13;3.58;;;128.80;2252.80;;;;;;5087602;28;20075;-81
2021/04/14 03:54:15;;;;;;;;;;;128.70;2252.80;;;;;;5102578;28;20103;-81
2021/04/14 03:56:40;;;;;;;5.97;3.15;;;128.90;2252.80;;;;;;5105569;28;19941;-81
2021/04/14 03:59:06;;;;;;;;;;;153.60;2252.80;;;;;;5105666;28;20050;-82
2021/04/14 04:01:32;;;;;;;6.00;3.47;;;128.90;2252.80;;;;;;5087857;28;19908;-81
2021/04/14 04:03:59;;;;;;;5.03;3.20;;;153.60;2252.80;;;;;;5085440;28;20067;-81
2021/04/14 04:06:25;;;;;;;5.82;3.45;;;128.90;2252.80;;;;;;5086889;28;20024;-81
2021/04/14 04:08:51;;;;;;;7.47;3.65;;;153.60;2252.80;;;;;;5088233;28;20074;-81
2021/04/14 04:11:18;;;;;;;;;;;153.70;2252.80;;;;;;5080608;28;20047;-81
2021/04/14 04:13:44;;;;;;;;;;;153.70;2252.80;;;;;;5105882;28;19904;-82
2021/04/14 04:16:10;;;;;;;7.28;3.38;;;154.10;2252.80;;;;;;5087463;28;19911;-81
2021/04/14 04:18:38;;;;;;;;;;;153.70;2252.80;;;;;;5087737;28;20027;-82
2021/04/14 04:21:05;;;;;;;6.15;3.50;;;153.70;2252.80;;;;;;5086687;28;19927;-80
2021/04/14 04:23:31;;;;;;;7.40;3.55;;;153.60;2252.80;;;;;;5085275;28;20035;-81
2021/04/14 04:25:57;;;;;;;;;;;128.90;2252.80;;;;;;5106330;28;20016;-81
2021/04/14 04:28:23;;;;;;;5.03;3.30;;;153.60;2252.80;;;;;;5087470;28;20352;-81
2021/04/14 04:30:50;;;;;;;4.57;3.00;;;128.80;2252.80;;;;;;5104818;28;20031;-81
2021/04/14 04:33:17;;;;;;;5.07;3.45;;;128.80;2252.80;;;;;;5105658;28;20024;-81
2021/04/14 04:35:43;;;;;;;4.93;3.42;;;128.70;2252.80;;;;;;5086435;28;20405;-80
2021/04/14 04:38:08;;;;;;;;;;;128.80;2252.80;;;;;;5088757;28;20020;-80
2021/04/14 04:40:34;;;;;;;7.05;4.70;;;128.80;2252.80;;;;;;5085096;28;19934;-81
2021/04/14 04:43:00;;;;;;;;;;;153.60;2252.80;;;;;;5101168;28;20115;-82
2021/04/14 04:45:30;;;;;;;5.13;3.53;;;153.60;2252.80;;;;;;5086038;28;19908;-83
2021/04/14 04:47:57;;;;;;;4.75;3.42;;;128.90;2252.80;;;;;;5087446;28;20376;-82
2021/04/14 04:50:27;;;;;;;6.88;2.83;;;128.90;2252.80;;;;;;5085354;28;20497;-77
2021/04/14 04:52:59;;;;;;;5.18;2.90;;;128.90;2252.80;;;;;;5092239;28;20466;-77
2021/04/14 04:55:25;;;;;;;5.40;3.88;;;128.80;2252.80;;;;;;5091125;28;20020;-77
2021/04/14 04:57:51;;;;;;;8.40;5.82;;;128.90;2252.80;;;;;;5091764;28;20048;-77
2021/04/14 05:00:17;;;;;;;;;;;153.60;2252.80;;;;;;5092378;28;20071;-77
2021/04/14 05:02:43;;;;;;;9.27;4.32;;;128.90;2252.80;;;;;;5092718;28;19935;-77
2021/04/14 05:05:10;;;;;;;;;;;128.90;2252.80;;;;;;5092350;28;20540;-77
2021/04/14 05:07:36;;;;;;;;;;;128.90;2252.80;;;;;;5091782;28;19911;-78
2021/04/14 05:10:03;;;;;;;6.32;3.90;;;128.90;2252.80;;;;;;5091659;28;19904;-78
2021/04/14 05:12:29;;;;;;;6.18;4.53;;;128.90;2252.80;;;;;;5090978;28;20487;-77
2021/04/14 05:14:54;;;;;;;;;;;153.60;2252.80;;;;;;5093108;28;20016;-82
2021/04/14 05:17:20;;;;;;;12.32;7.05;;;128.80;2252.80;;;;;;5088448;28;19995;-77
2021/04/14 05:19:46;;;;;;;;;;;128.80;2252.80;;;;;;5092413;28;20031;-78
2021/04/14 05:22:11;;;;;;;11.38;7.53;;;128.70;2252.80;;;;;;5091259;28;19926;-77
2021/04/14 05:24:37;;;;;;;;;;;128.60;2252.80;;;;;;5091991;28;20032;-77
2021/04/14 05:27:03;;;;;;;10.90;5.75;;;128.60;2252.80;;;;;;5092805;28;20380;-77
2021/04/14 05:29:28;;;;;;;;;;;128.60;2252.80;;;;;;5092590;28;20027;-81
2021/04/14 05:31:54;;;;;;;29.92;16.85;;;128.70;2252.80;;;;;;5116840;27;19915;-78
2021/04/14 05:34:20;;;;;;;;;;;128.70;2252.80;;;;;;5091547;28;20032;-78
2021/04/14 05:36:46;;;;;;;12.77;7.15;;;128.70;2252.80;;;;;;5091506;28;19995;-78
2021/04/14 05:39:11;;;;;;;;;;;128.60;2252.80;;;;;;5078399;28;20539;-77
2021/04/14 05:41:37;;;;;;;37.65;26.92;;;128.70;2252.80;;;;;;5089122;28;19904;-77
2021/04/14 05:44:03;;;;;;;35.97;31.67;;;128.60;2252.80;;;;;;5092349;28;20032;-77
2021/04/14 05:46:28;;;;;;;;;;;128.60;2252.80;;;;;;5078992;28;20036;-74
2021/04/14 05:48:54;;;;;;;22.88;15.38;;;128.70;2252.80;;;;;;5092371;28;20285;-75
2021/04/14 05:51:28;;;;;;;;;;;128.60;2252.80;;;;;;5094638;28;20052;-76
2021/04/14 05:53:54;;;;;;;25.63;14.00;;;128.80;2252.80;;;;;;5092458;28;19904;-77
2021/04/14 05:56:20;;;;;;;;;;;128.70;2252.80;;;;;;5094798;28;20030;-76
2021/04/14 05:58:47;;;;;;;12.47;8.07;;;128.70;2252.80;;;;;;5112099;28;19908;-76
2021/04/14 06:01:17;;;;;;;31.00;14.27;;;128.60;2252.80;;;;;;5113154;28;20388;-77
2021/04/14 06:03:42;;;;;;;41.38;19.27;;;128.70;2252.80;;;;;;5094947;28;20032;-77
2021/04/14 06:06:08;;;;;;;;;;;128.70;2252.80;;;;;;5095437;28;20026;-76
2021/04/14 06:08:34;;;;;;;41.00;25.00;;;128.70;2252.80;;;;;;5094327;28;19961;-77
2021/04/14 06:10:59;;;;;;;;;;;128.70;2252.80;;;;;;5112806;28;20020;-76
2021/04/14 06:13:27;;;;;;;12.68;6.35;;;128.70;2252.80;;;;;;5094081;28;19903;-75
2021/04/14 06:15:53;;;;;;;11.82;8.05;;;128.60;2252.80;;;;;;5111602;28;20021;-77
2021/04/14 06:18:19;;;;;;;14.45;9.13;;;128.40;2252.80;;;;;;5113778;28;20022;-76
2021/04/14 06:20:44;;;;;;;;;;;128.50;2252.80;;;;;;5095589;28;20103;-75
2021/04/14 06:23:16;;;;;;;11.95;7.75;;;128.60;2252.80;;;;;;5112072;28;19954;-77
2021/04/14 06:25:55;;;;;;;10.55;7.30;;;128.70;2252.80;;;;;;5097363;28;20023;-75
2021/04/14 06:28:22;;;;;;;12.10;7.32;;;128.70;2252.80;;;;;;5097908;28;20461;-75
2021/04/14 06:30:48;;;;;;;12.15;7.65;;;128.90;2252.80;;;;;;5097738;28;20027;-77
2021/04/14 06:33:15;;;;;;;;;;;128.90;2252.80;;;;;;5098625;28;20038;-76
2021/04/14 06:35:41;;;;;;;17.65;9.55;;;128.70;2252.80;;;;;;5116354;28;19956;-78
2021/04/14 06:38:06;;;;;;;;;;;128.70;2252.80;;;;;;5098877;28;20023;-76
2021/04/14 06:43:47;;;;;;;10.10;7.13;;;128.70;2252.80;;;;;;5131588;27;20030;-78
2021/04/14 06:46:31;;;;;;;11.50;6.95;;;128.60;2252.80;;;;;;5095708;28;20046;-78
2021/04/14 06:49:03;;;;;;;10.48;6.88;;;128.50;2252.80;;;;;;5118519;27;20029;-75
2021/04/14 06:51:50;;;;;;;10.10;7.03;;;128.60;2252.80;;;;;;5136260;27;20522;-76
2021/04/14 06:54:45;;;;;;;11.13;7.68;;;128.60;2252.80;;;;;;5118296;27;20127;-75
2021/04/14 06:57:20;;;;;;;10.10;6.75;;;128.60;2252.80;;;;;;5127648;27;20027;-74
2021/04/14 06:59:52;;;;;;;9.68;6.03;;;128.70;2252.80;;;;;;5097215;28;20084;-74
2021/04/14 07:02:43;;;;;;;10.20;7.15;;;128.70;2252.80;;;;;;5114958;28;20034;-75
2021/04/14 07:05:15;;;;;;;14.13;8.90;;;128.70;2252.80;;;;;;5088086;28;20040;-75
2021/04/14 07:07:44;;;;;;;12.73;8.07;;;128.90;2252.80;;;;;;5097383;28;20028;-75
2021/04/14 07:10:30;;;;;;;11.48;8.40;;;128.90;2252.80;;;;;;5097020;28;20380;-75
2021/04/14 07:13:01;;;;;;;9.60;6.82;;;128.80;2252.80;;;;;;5115697;28;20445;-76
2021/04/14 07:15:28;;;;;;;8.98;6.35;;;128.80;2252.80;;;;;;5134361;27;20031;-75
2021/04/14 07:18:03;;;;;;;8.23;5.90;;;128.80;2252.80;;;;;;5132928;27;20020;-76
2021/04/14 07:20:47;;;;;;;8.85;6.75;;;128.80;2252.80;;;;;;5115638;28;20075;-74
2021/04/14 07:23:23;;;;;;;9.38;7.43;;;128.80;2252.80;;;;;;5096556;28;20168;-75
2021/04/14 07:25:57;;;;;;;12.88;10.25;;;128.90;2252.80;;;;;;5115461;28;20488;-75
2021/04/14 07:28:43;;;;;;;9.40;7.13;;;128.90;2252.80;;;;;;5097117;28;20059;-76
2021/04/14 07:31:24;;;;;;;8.65;5.47;;;128.90;2252.80;;;;;;5096783;28;20036;-75
2021/04/14 07:34:06;;;;;;;9.02;6.13;;;153.60;2252.80;;;;;;5115146;28;20516;-75
2021/04/14 07:36:57;;;;;;;10.82;7.18;;;128.90;2252.80;;;;;;5095999;28;20027;-75
2021/04/14 07:39:34;;;;;;;10.02;6.57;;;153.70;2252.80;;;;;;5115109;28;20106;-76
2021/04/14 07:42:23;;;;;;;7.20;5.28;;;153.80;2252.80;;;;;;5114582;28;20024;-77
2021/04/14 07:45:26;;;;;;;14.05;8.25;;;153.60;2252.80;;;;;;5096436;28;20031;-75
2021/04/14 07:47:57;;;;;;;13.10;8.70;;;153.70;2252.80;;;;;;5119017;27;20167;-75
2021/04/14 07:50:34;;;;;;;11.27;7.03;;;153.80;2252.80;;;;;;5097016;28;20507;-75
2021/04/14 07:52:59;;;;;;;14.38;9.13;;;153.80;2252.80;;;;;;5114220;28;20153;-76
2021/04/14 07:55:27;;;;;;;;;;;154.00;2252.80;;;;;;5112123;28;20431;-77
2021/04/14 07:57:53;;;;;;;13.63;8.77;;;153.90;2252.80;;;;;;5095961;28;19904;-77
2021/04/14 08:00:24;;;;;;;;;;;153.90;2252.80;;;;;;5114702;28;20039;-75
2021/04/14 08:02:50;;;;;;;9.35;6.30;;;153.90;2252.80;;;;;;5111943;28;19919;-78
2021/04/14 08:05:19;;;;;;;;;;;153.80;2252.80;;;;;;5096070;28;20503;-77
2021/04/14 08:07:45;;;;;;;9.10;6.65;;;153.90;2252.80;;;;;;5092678;28;19904;-78
2021/04/14 08:10:19;;;;;;;23.52;13.07;;;153.80;2252.80;;;;;;5095474;28;20488;-77
2021/04/14 08:13:02;;;;;;;25.13;13.88;;;154.00;2252.80;;;;;;5095824;28;20111;-77
2021/04/14 08:15:35;;;;;;;35.78;15.75;;;154.10;2252.80;;;;;;5111496;28;20156;-78
2021/04/14 08:18:14;;;;;;;15.68;9.57;;;154.10;2252.80;;;;;;5114317;28;20030;-77
2021/04/14 08:20:42;;;;;;;10.00;7.28;;;154.10;2252.80;;;;;;5114744;28;20488;-80
2021/04/14 08:23:13;;;;;;;11.85;7.75;;;154.00;2252.80;;;;;;5096130;28;20042;-80
2021/04/14 08:25:53;;;;;;;17.77;9.88;;;154.10;2252.80;;;;;;5096470;28;20031;-79
2021/04/14 08:28:48;;;;;;;13.75;8.57;;;154.00;2252.80;;;;;;5095769;28;20035;-80
2021/04/14 08:31:35;;;;;;;12.25;7.43;;;154.10;2252.80;;;;;;5097101;28;20123;-79
2021/04/14 08:34:12;;;;;;;11.45;7.05;;;154.10;2252.80;;;;;;5096308;28;20039;-80
2021/04/14 08:37:04;;;;;;;15.93;8.55;;;154.20;2252.80;;;;;;5097301;28;20452;-80
2021/04/14 08:39:36;;;;;;;12.75;7.40;;;154.30;2252.80;;;;;;5114461;28;20027;-76
2021/04/14 08:42:22;;;;;;;13.70;8.40;;;154.30;2252.80;;;;;;5095699;28;20476;-78
2021/04/14 08:44:54;;;;;;;14.52;8.68;;;154.30;2252.80;;;;;;5090186;28;20025;-78
2021/04/14 08:47:28;;;;;;;10.45;7.28;;;154.20;2252.80;;;;;;5094755;28;20477;-79
2021/04/14 08:50:06;;;;;;;11.70;7.70;;;154.30;2252.80;;;;;;5095518;28;20031;-87
2021/04/14 08:52:36;;;;;;;25.67;12.65;;;154.30;2252.80;;;;;;5094708;28;20019;-78
2021/04/14 08:55:05;;;;;;;30.05;14.63;;;154.40;2252.80;;;;;;5095538;28;20047;-80
2021/04/14 08:57:30;;;;;;;9.80;6.72;;;154.40;2252.80;;;;;;5095804;28;20019;-79
2021/04/14 08:59:56;;;;;;;;;;;154.30;2252.80;;;;;;5096042;28;20023;-79
2021/04/14 09:02:23;;;;;;;10.13;7.32;;;154.30;2252.80;;;;;;5096273;28;19956;-83
2021/04/14 09:04:51;;;;;;;10.35;7.13;;;154.30;2252.80;;;;;;5096476;28;20031;-85
2021/04/14 09:07:30;;;;;;;11.77;8.05;;;154.40;2252.80;;;;;;5096544;28;20026;-81
2021/04/14 09:09:56;;;;;;;12.80;8.82;;;154.30;2252.80;;;;;;5095885;28;20027;-87
2021/04/14 09:12:51;;;;;;;;;;;154.30;2252.80;;;;;;5096905;28;20030;-84
2021/04/14 09:15:18;;;;;;;12.50;7.10;;;154.40;2252.80;;;;;;5035151;28;19925;-85
2021/04/14 09:17:55;;;;;;;12.65;6.85;;;154.50;2252.80;;;;;;5051952;28;20846;-86
2021/04/14 09:20:24;;;;;;;9.80;6.22;;;154.40;2252.80;;;;;;5051855;28;20033;-81
2021/04/14 09:23:13;;;;;;;9.73;6.57;;;154.40;2252.80;;;;;;5032339;28;20031;-80
2021/04/14 09:25:47;;;;;;;10.13;6.93;;;154.30;2252.80;;;;;;5033787;28;20041;-83
2021/04/14 09:28:26;;;;;;;10.70;7.18;;;154.30;2252.80;;;;;;5015401;28;20022;-82
2021/04/14 09:30:54;;;;;;;9.85;6.53;;;154.20;2252.80;;;;;;5014600;28;20120;-85
2021/04/14 09:33:47;;;;;;;10.57;7.93;;;154.20;2252.80;;;;;;5015326;28;20046;-78
2021/04/14 09:36:27;;;;;;;9.88;6.78;;;154.20;2252.80;;;;;;5015441;28;20108;-83
2021/04/14 09:38:54;;;;;;;10.05;6.93;;;154.30;2252.80;;;;;;5015002;28;20037;-80
2021/04/14 09:41:26;;;;;;;8.43;5.95;;;154.40;2252.80;;;;;;5014911;28;20076;-82
2021/04/14 09:43:57;;;;;;;13.73;8.05;;;154.40;2252.80;;;;;;5014786;28;20034;-78
2021/04/14 09:46:31;;;;;;;11.02;6.82;;;154.50;2252.80;;;;;;5014117;28;20046;-80
2021/04/14 09:49:32;;;;;;;14.07;8.30;;;179.20;2252.80;;;;;;5057263;28;20036;-85
2021/04/14 09:52:00;;;;;;;10.43;6.63;;;179.40;2252.80;;;;;;5083562;28;20394;-79
2021/04/14 09:54:30;;;;;;;12.25;8.68;;;179.40;2252.80;;;;;;5074735;28;20026;-77
2021/04/14 09:56:59;;;;;;;9.07;6.28;;;179.50;2252.80;;;;;;5074531;28;20080;-79
2021/04/14 09:59:30;;;;;;;9.60;6.80;;;179.40;2252.80;;;;;;5074430;28;20389;-82
2021/04/14 10:02:02;;;;;;;12.05;7.78;;;179.40;2252.80;;;;;;5074790;28;20111;-80
2021/04/14 10:04:28;;;;;;;12.10;8.48;;;179.30;2252.80;;;;;;5074098;28;20070;-82
2021/04/14 10:06:56;;;;;;;;;;;179.20;2252.80;;;;;;5075533;28;20024;-78
2021/04/14 10:09:29;;;;;;;23.73;14.10;;;154.50;2252.80;;;;;;5079950;28;19903;-84
2021/04/14 10:11:55;;;;;;;22.08;14.50;;;179.20;2252.80;;;;;;5095147;28;20034;-81
2021/04/14 10:14:24;;;;;;;23.67;13.10;;;179.20;2252.80;;;;;;5095043;28;20614;-78
2021/04/14 10:16:52;;;;;;;15.43;9.82;;;179.30;2252.80;;;;;;5094589;28;20024;-81
2021/04/14 10:19:28;;;;;;;14.00;9.95;;;179.30;2252.80;;;;;;5094797;28;20027;-79
2021/04/14 10:21:54;;;;;;;12.82;8.35;;;179.40;2252.80;;;;;;5095030;28;20024;-78
2021/04/14 10:24:20;;;;;;;;;;;179.50;2252.80;;;;;;5095218;28;20043;-81
2021/04/14 10:26:55;;;;;;;20.90;12.75;;;179.50;2252.80;;;;;;5093988;28;20353;-81
2021/04/14 10:29:25;;;;;;;17.67;12.50;;;179.40;2252.80;;;;;;5112378;28;20032;-78
2021/04/14 10:31:53;;;;;;;11.98;7.47;;;179.40;2252.80;;;;;;5094071;28;20023;-80
2021/04/14 10:34:27;;;;;;;11.05;7.75;;;179.40;2252.80;;;;;;5093854;28;20039;-77
2021/04/14 10:36:56;;;;;;;14.43;9.18;;;179.40;2252.80;;;;;;5093888;28;20085;-80
2021/04/14 10:39:31;;;;;;;11.48;7.80;;;179.40;2252.80;;;;;;5094098;28;20457;-80
2021/04/14 10:41:58;;;;;;;9.68;6.55;;;179.50;2252.80;;;;;;5092038;28;20115;-86
2021/04/14 10:44:28;;;;;;;10.00;6.68;;;179.50;2252.80;;;;;;5093705;28;20404;-80
2021/04/14 10:47:25;;;;;;;7.53;5.68;;;179.40;2252.80;;;;;;5094095;28;20447;-79
2021/04/14 10:49:51;;;;;;;9.18;6.35;;;179.40;2252.80;;;;;;5090357;28;20031;-79
2021/04/14 10:52:17;;;;;;;;;;;179.40;2252.80;;;;;;5082821;28;20135;-80
2021/04/14 10:54:47;;;;;;;10.13;6.82;;;179.40;2252.80;;;;;;5085164;28;19904;-80
2021/04/14 10:57:24;;;;;;;12.70;8.25;;;179.40;2252.80;;;;;;5080431;28;20032;-80
2021/04/14 10:59:50;;;;;;;13.60;9.30;;;179.40;2252.80;;;;;;5084888;28;20020;-79
2021/04/14 11:02:22;;;;;;;;;;;179.40;2252.80;;;;;;5074301;28;20531;-81
2021/04/14 11:04:50;;;;;;;15.57;9.60;;;179.50;2252.80;;;;;;5091793;28;19912;-78
2021/04/14 11:07:21;;;;;;;13.00;8.48;;;179.40;2252.80;;;;;;5074098;28;20023;-80
2021/04/14 11:09:49;;;;;;;15.27;8.68;;;179.30;2252.80;;;;;;5082896;28;20452;-79
2021/04/14 11:12:23;;;;;;;19.00;12.57;;;179.50;2252.80;;;;;;5075681;28;20031;-80
2021/04/14 11:14:52;;;;;;;12.75;9.48;;;179.60;2252.80;;;;;;5057701;28;20051;-79
2021/04/14 11:17:30;;;;;;;14.15;9.98;;;179.70;2252.80;;;;;;5075363;28;20374;-79
2021/04/14 11:19:58;;;;;;;11.65;8.40;;;179.60;2252.80;;;;;;5057585;28;20025;-80
2021/04/14 11:22:24;;;;;;;30.42;11.98;;;179.60;2252.80;;;;;;5075350;28;20082;-79
2021/04/14 11:24:56;;;;;;;81.20;15.48;;;179.70;2252.80;;;;;;5057678;28;20058;-80
2021/04/14 11:27:28;;;;;;;14.45;8.38;;;179.70;2252.80;;;;;;5057238;28;20025;-86
2021/04/14 11:30:07;;;;;;;13.52;9.10;;;179.70;2252.80;;;;;;5057178;28;20025;-81
2021/04/14 11:32:33;;;;;;;14.93;8.00;;;179.70;2252.80;;;;;;5057398;28;20123;-79
2021/04/14 11:35:00;;;;;;;;;;;179.70;2252.80;;;;;;5057556;28;20111;-79
2021/04/14 11:37:32;;;;;;;15.20;6.88;;;179.80;2252.80;;;;;;5057905;28;19929;-81
2021/04/14 11:40:07;;;;;;;14.95;8.68;;;179.90;2252.80;;;;;;5057038;28;20028;-85
2021/04/14 11:42:56;;;;;;;16.48;9.60;;;179.70;2252.80;;;;;;5057542;28;20033;-83
2021/04/14 11:45:24;;;;;;;15.30;11.52;;;179.50;2252.80;;;;;;5075017;28;20111;-82
2021/04/14 11:47:49;;;;;;;15.32;7.63;;;179.70;2252.80;;;;;;5061597;28;20028;-82
2021/04/14 11:50:27;;;;;;;;;;;179.60;2252.80;;;;;;5100746;28;20055;-84
2021/04/14 11:52:58;;;;;;;10.70;6.45;;;179.60;2252.80;;;;;;5115500;28;19935;-87
2021/04/14 11:55:34;;;;;;;12.02;6.18;;;179.50;2252.80;;;;;;5115535;28;20438;-81
2021/04/14 11:58:05;;;;;;;;;;;179.70;2252.80;;;;;;5113824;28;20024;-79
2021/04/14 12:00:44;;;;;;;15.05;7.60;;;179.60;2252.80;;;;;;5096081;28;19912;-81
2021/04/14 12:03:19;;;;;;;11.23;7.15;;;179.80;2252.80;;;;;;5095331;28;20038;-81
2021/04/14 12:05:56;;;;;;;11.35;7.30;;;179.70;2252.80;;;;;;5112789;28;20043;-82
2021/04/14 12:08:24;;;;;;;16.02;9.32;;;179.60;2252.80;;;;;;5112320;28;20477;-80
2021/04/14 12:10:50;;;;;;;18.33;11.43;;;179.60;2252.80;;;;;;5096533;28;20023;-81
2021/04/14 12:13:16;;;;;;;;;;;179.90;2252.80;;;;;;5096338;28;20099;-81
2021/04/14 12:15:42;;;;;;;10.60;5.78;;;179.80;2252.80;;;;;;5114518;28;20405;-82
2021/04/14 12:18:07;;;;;;;;;;;179.90;2252.80;;;;;;5096896;28;20385;-81
2021/04/14 12:20:33;;;;;;;13.88;7.78;;;179.60;2252.80;;;;;;5095777;28;19904;-79
2021/04/14 12:22:59;;;;;;;15.45;7.97;;;179.70;2252.80;;;;;;5092261;28;20035;-82
2021/04/14 12:25:25;;;;;;;;;;;179.70;2252.80;;;;;;5114825;28;20019;-81
2021/04/14 12:27:51;;;;;;;15.32;9.23;;;179.50;2252.80;;;;;;5096088;28;20361;-82
2021/04/14 12:30:17;;;;;;;;;;;179.40;2252.80;;;;;;5096134;28;20106;-82
2021/04/14 12:32:42;;;;;;;9.27;5.72;;;179.70;2252.80;;;;;;5114631;28;19907;-86
2021/04/14 12:35:09;;;;;;;;;;;179.20;2252.80;;;;;;5114957;28;20027;-79
2021/04/14 12:37:35;;;;;;;16.00;8.53;;;179.20;2252.80;;;;;;5114817;28;19903;-78
2021/04/14 12:40:00;;;;;;;;;;;154.50;2252.80;;;;;;5114457;28;20100;-78
2021/04/14 12:42:28;;;;;;;20.75;11.13;;;179.40;2252.80;;;;;;5095924;28;19911;-78
2021/04/14 12:44:55;;;;;;;18.25;10.20;;;179.30;2252.80;;;;;;5095990;28;20058;-77
2021/04/14 12:47:24;;;;;;;14.45;8.90;;;179.20;2252.80;;;;;;5095160;28;20036;-78